Terminal Aerodrome Forecast
Issued by NWS Sterling, VA

Current Version | Previous Version | Graphics & Text | Print | Product List | Glossary On
Versions: 1 2 3 4 5 6 7 8 9 10 11 12 13 14 15 16 17 18 19 20 21 22 23
163
FTUS41 KLWX 042058 AAA
TAFIAD
TAF AMD
KIAD 042058Z 0421/0524 34010KT P6SM BKN050
     FM051500 33012G19KT P6SM SCT050
     FM052100 32010KT P6SM SKC=

USA.gov is the U.S. government's official web portal to all federal, state and local government web resources and services.